Terminal Aerodrome Forecast
Issued by NWS

Home | Current Version | Previous Version | Text Only | Print | Product List | Glossary On
Versions: 1 2 3 4 5 6 7 8 9 10 11 12 13 14 15 16 17 18 19 20 21 22 23 24 25 26 27
000
FTUS45 KTWC 292322
TAFOLS
TAF
KOLS 292322Z 3000/3024 22016G24KT P6SM SKC
     FM300200 22008KT P6SM SKC
     FM300600 VRB03KT P6SM SKC
     FM301700 19010G16KT P6SM SKC
     FM302000 21015G23KT P6SM SKC=

USA.gov is the U.S. government's official web portal to all federal, state and local government web resources and services.